createdAt,value
2022-12-23T00:00:00.407Z,4.62
2022-12-23T00:05:00.464Z,20.13
2022-12-23T00:10:00.772Z,9.26
2022-12-23T00:15:00.419Z,8.45
2022-12-23T00:20:00.561Z,16.07
2022-12-23T00:25:00.498Z,15.24
2022-12-23T00:30:00.499Z,8.34
2022-12-23T00:35:00.374Z,14.03
2022-12-23T00:40:07.919Z,6.84
2022-12-23T00:45:00.345Z,12.06
2022-12-23T00:50:00.554Z,10.68
2022-12-23T00:55:00.604Z,5.93
2022-12-23T01:00:00.547Z,5.16
2022-12-23T01:05:00.401Z,4.58
2022-12-23T01:10:00.616Z,6.11
2022-12-23T01:15:00.507Z,6.25
2022-12-23T01:20:00.546Z,5.93
2022-12-23T01:25:00.602Z,3.92
2022-12-23T01:30:00.433Z,4.63
2022-12-23T01:35:00.539Z,4.59
2022-12-23T01:40:09.571Z,5.84
2022-12-23T01:45:00.393Z,4.44
2022-12-23T01:50:00.603Z,6.97
2022-12-23T01:55:00.633Z,6.89
2022-12-23T02:00:00.420Z,6.55
2022-12-23T02:05:00.576Z,9.80
2022-12-23T02:10:00.543Z,5.51
2022-12-23T02:15:00.626Z,3.68
2022-12-23T02:20:00.440Z,6.44
2022-12-23T02:25:00.578Z,5.28
2022-12-23T02:30:00.381Z,5.34
2022-12-23T02:35:00.604Z,12.97
2022-12-23T02:40:08.639Z,8.28
2022-12-23T02:45:00.398Z,5.75
2022-12-23T02:50:00.479Z,7.79
2022-12-23T02:55:00.561Z,4.03
2022-12-23T03:00:00.414Z,12.33
2022-12-23T03:05:01.273Z,9.03
2022-12-23T03:10:00.590Z,7.22
2022-12-23T03:15:00.448Z,6.14
2022-12-23T03:20:00.535Z,5.66
2022-12-23T03:25:00.618Z,13.98
2022-12-23T03:30:00.390Z,5.51
2022-12-23T03:35:00.515Z,8.45
2022-12-23T03:40:07.901Z,3.15
2022-12-23T03:50:01.533Z,2.26
2022-12-23T03:55:00.472Z,2.67
2022-12-23T04:00:00.917Z,2.54
2022-12-23T04:05:00.674Z,2.90
2022-12-23T04:10:00.806Z,3.54
2022-12-23T04:15:03.131Z,2.68
2022-12-23T04:20:00.705Z,2.43
2022-12-23T04:25:00.698Z,2.54
2022-12-23T04:30:00.911Z,2.41
2022-12-23T04:35:00.676Z,2.66
2022-12-23T04:45:01.017Z,2.12
2022-12-23T04:50:00.886Z,2.83
2022-12-23T04:55:00.739Z,2.62
2022-12-23T05:00:00.977Z,2.81
2022-12-23T05:05:00.812Z,2.45
2022-12-23T05:10:01.330Z,2.69
2022-12-23T05:15:00.864Z,2.91
2022-12-23T05:20:00.642Z,2.46
2022-12-23T05:25:00.697Z,3.16
2022-12-23T05:30:00.758Z,35.70
2022-12-23T05:35:00.701Z,2.52
2022-12-23T05:40:00.680Z,3.05
2022-12-23T05:45:01.071Z,5.58
2022-12-23T05:50:00.688Z,3.70
2022-12-23T05:55:00.735Z,2.77
2022-12-23T06:00:01.949Z,2.93
2022-12-23T06:05:00.699Z,2.92
2022-12-23T06:10:00.743Z,2.86
2022-12-23T06:15:01.049Z,3.35
2022-12-23T06:20:00.761Z,3.07
2022-12-23T06:25:00.832Z,1.93
2022-12-23T06:30:01.366Z,1.97
2022-12-23T06:35:00.669Z,2.59
2022-12-23T06:45:01.478Z,3.42
2022-12-23T06:50:00.788Z,2.93
2022-12-23T06:55:00.700Z,2.78
2022-12-23T07:00:00.909Z,4.92
2022-12-23T07:05:00.680Z,4.24
2022-12-23T07:10:00.858Z,3.08
2022-12-23T07:15:01.020Z,2.40
2022-12-23T07:20:02.145Z,2.61
2022-12-23T07:25:00.706Z,3.70
2022-12-23T07:30:00.847Z,2.91
2022-12-23T07:35:00.699Z,1.78
2022-12-23T07:45:01.144Z,1.71
2022-12-23T07:50:01.040Z,1.51
2022-12-23T07:55:00.689Z,3.47
2022-12-23T08:00:00.843Z,3.50
2022-12-23T08:05:00.816Z,7.82
2022-12-23T08:10:00.910Z,3.51
2022-12-23T08:15:01.221Z,3.10
2022-12-23T08:20:00.646Z,4.81
2022-12-23T08:25:00.782Z,4.03
2022-12-23T08:30:00.747Z,10.32
2022-12-23T08:35:00.703Z,6.29
2022-12-23T08:45:00.742Z,11.44
2022-12-23T08:50:00.448Z,3.37
2022-12-23T08:55:00.963Z,1.97
2022-12-23T09:00:00.551Z,2.49
2022-12-23T09:05:00.649Z,1.59
2022-12-23T09:10:00.555Z,2.43
2022-12-23T09:15:00.681Z,2.13
2022-12-23T09:20:00.641Z,6.01
2022-12-23T09:25:05.087Z,7.28
2022-12-23T09:30:00.729Z,5.81
2022-12-23T09:35:00.484Z,4.30
2022-12-23T09:45:00.780Z,5.76
2022-12-23T09:50:00.670Z,3.08
2022-12-23T09:55:00.467Z,2.38
2022-12-23T10:00:00.632Z,1.59
2022-12-23T10:05:00.498Z,2.38
2022-12-23T10:10:00.528Z,2.56
2022-12-23T10:15:00.772Z,2.21
2022-12-23T10:20:00.493Z,2.03
2022-12-23T10:25:00.555Z,1.92
2022-12-23T10:30:13.890Z,2.43
2022-12-23T10:35:00.491Z,2.65
2022-12-23T10:45:00.882Z,1.87
2022-12-23T10:50:00.800Z,2.26
2022-12-23T10:55:00.487Z,2.07
2022-12-23T11:00:00.735Z,1.76
2022-12-23T11:05:00.475Z,4.96
2022-12-23T11:10:00.554Z,20.63
2022-12-23T11:15:01.016Z,6.97
2022-12-23T11:20:00.475Z,2.88
2022-12-23T11:25:00.521Z,3.68
2022-12-23T11:30:00.695Z,1.59
2022-12-23T11:35:00.679Z,2.76
2022-12-23T11:40:00.504Z,2.86
2022-12-23T11:45:00.830Z,1.49
2022-12-23T11:50:00.487Z,1.26
2022-12-23T11:55:00.603Z,1.67
2022-12-23T12:00:00.628Z,2.48
2022-12-23T12:05:00.837Z,2.01
2022-12-23T12:10:00.459Z,5.22
2022-12-23T12:15:00.724Z,10.82
2022-12-23T12:20:00.487Z,4.65
2022-12-23T12:25:00.664Z,4.12
2022-12-23T12:30:06.128Z,2.50
2022-12-23T12:35:00.567Z,4.39
2022-12-23T12:40:00.547Z,35.73
2022-12-23T12:45:00.785Z,4.43
2022-12-23T12:50:00.465Z,9.71
2022-12-23T12:55:00.559Z,5.21
2022-12-23T13:00:06.071Z,4.71
2022-12-23T13:05:00.618Z,3.13
2022-12-23T13:10:00.479Z,4.60
2022-12-23T13:15:00.653Z,3.04
2022-12-23T13:20:00.478Z,3.77
2022-12-23T13:25:00.753Z,3.04
2022-12-23T13:30:02.353Z,5.53
2022-12-23T13:35:00.470Z,4.10
2022-12-23T13:45:00.901Z,5.40
2022-12-23T13:50:00.858Z,3.83
2022-12-23T13:55:00.714Z,6.11
2022-12-23T14:00:05.974Z,3.65
2022-12-23T14:05:00.679Z,3.17
2022-12-23T14:10:00.824Z,3.52
2022-12-23T14:15:00.790Z,4.23
2022-12-23T14:20:00.837Z,3.46
2022-12-23T14:25:00.735Z,4.00
2022-12-23T14:30:05.566Z,3.68
2022-12-23T14:35:00.724Z,4.29
2022-12-23T14:40:04.558Z,3.38
2022-12-23T14:45:00.841Z,5.47
2022-12-23T14:50:01.061Z,3.79
2022-12-23T14:55:29.275Z,2.77
2022-12-23T15:00:01.299Z,2.00
2022-12-23T15:05:00.872Z,2.14
2022-12-23T15:10:01.579Z,3.12
2022-12-23T15:15:00.932Z,3.79
2022-12-23T15:20:00.758Z,3.50
2022-12-23T15:25:00.802Z,3.80
2022-12-23T15:30:00.864Z,6.58
2022-12-23T15:35:00.736Z,7.81
2022-12-23T15:40:11.419Z,6.06
2022-12-23T15:45:00.876Z,7.74
2022-12-23T15:50:00.811Z,8.01
2022-12-23T15:55:00.896Z,10.41
2022-12-23T16:00:01.085Z,11.40
2022-12-23T16:05:02.828Z,13.57
2022-12-23T16:10:00.697Z,12.59
2022-12-23T16:15:00.915Z,15.12
2022-12-23T16:20:00.695Z,18.22
2022-12-23T16:25:00.812Z,23.93
2022-12-23T16:30:00.842Z,23.26
2022-12-23T16:35:00.807Z,20.04
2022-12-23T16:40:00.695Z,26.44
2022-12-23T16:45:00.951Z,25.96
2022-12-23T16:50:00.689Z,22.81
2022-12-23T16:55:00.788Z,19.55
2022-12-23T17:00:00.957Z,18.46
2022-12-23T17:05:00.686Z,20.11
2022-12-23T17:10:00.765Z,17.74
2022-12-23T17:15:00.987Z,20.63
2022-12-23T17:20:00.707Z,18.19
2022-12-23T17:25:01.247Z,19.27
2022-12-23T17:30:00.723Z,18.83
2022-12-23T17:35:00.755Z,17.42
2022-12-23T17:40:04.667Z,16.21
2022-12-23T17:45:00.965Z,14.59
2022-12-23T17:50:00.754Z,14.23
2022-12-23T17:55:00.833Z,16.67
2022-12-23T18:00:00.823Z,15.82
2022-12-23T18:05:00.787Z,16.04
2022-12-23T18:10:00.824Z,14.68
2022-12-23T18:15:00.907Z,15.69
2022-12-23T18:20:00.719Z,15.02
2022-12-23T18:25:00.867Z,14.50
2022-12-23T18:30:00.813Z,16.05
2022-12-23T18:35:00.768Z,17.32
2022-12-23T18:40:05.048Z,18.16
2022-12-23T18:45:00.866Z,17.27
2022-12-23T18:50:00.690Z,19.27
2022-12-23T18:55:00.797Z,19.52
2022-12-23T19:00:01.002Z,17.01
2022-12-23T19:05:00.686Z,19.81
2022-12-23T19:10:00.774Z,15.29
2022-12-23T19:15:02.751Z,13.49
2022-12-23T19:20:00.716Z,15.97
2022-12-23T19:25:05.806Z,16.11
2022-12-23T19:30:00.794Z,16.42
2022-12-23T19:35:00.758Z,15.06
2022-12-23T19:40:04.682Z,13.46
2022-12-23T19:45:00.907Z,12.73
2022-12-23T19:50:00.705Z,15.04
2022-12-23T19:55:00.871Z,14.85
2022-12-23T20:00:00.953Z,16.38
2022-12-23T20:05:00.726Z,18.20
2022-12-23T20:10:00.882Z,14.22
2022-12-23T20:15:00.769Z,15.02
2022-12-23T20:20:00.951Z,17.83
2022-12-23T20:25:00.933Z,17.09
2022-12-23T20:30:00.889Z,16.02
2022-12-23T20:35:00.697Z,14.02
2022-12-23T20:40:04.868Z,12.74
2022-12-23T20:45:00.828Z,12.62
2022-12-23T20:50:00.742Z,13.74
2022-12-23T20:55:00.852Z,12.62
2022-12-23T21:00:01.122Z,11.29
2022-12-23T21:05:00.801Z,13.34
2022-12-23T21:10:00.992Z,11.95
2022-12-23T21:15:00.986Z,10.12
2022-12-23T21:20:07.229Z,10.17
2022-12-23T21:25:01.077Z,9.41
2022-12-23T21:30:00.729Z,10.11
2022-12-23T21:35:00.947Z,11.39
2022-12-23T21:40:04.749Z,10.41
2022-12-23T21:45:00.895Z,8.73
2022-12-23T21:50:01.738Z,9.10
2022-12-23T21:55:00.900Z,7.65
2022-12-23T22:00:01.048Z,6.72
2022-12-23T22:05:00.739Z,5.80
2022-12-23T22:10:00.833Z,3.98
2022-12-23T22:15:04.958Z,3.22
2022-12-23T22:20:00.728Z,3.18
2022-12-23T22:25:00.839Z,2.46
2022-12-23T22:30:00.865Z,1.65
2022-12-23T22:35:00.808Z,1.61
2022-12-23T22:40:04.924Z,1.25
2022-12-23T22:45:00.809Z,1.44
2022-12-23T22:50:00.840Z,1.77
2022-12-23T22:55:00.874Z,1.06
2022-12-23T23:00:06.150Z,0.83
2022-12-23T23:05:00.830Z,0.97
2022-12-23T23:10:00.847Z,1.22
2022-12-23T23:15:00.860Z,1.25
2022-12-23T23:20:00.713Z,0.91
2022-12-23T23:25:00.811Z,1.35
2022-12-23T23:30:00.858Z,1.81
2022-12-23T23:35:05.393Z,1.76
2022-12-23T23:40:05.508Z,1.64
2022-12-23T23:45:00.836Z,0.76
2022-12-23T23:50:00.883Z,1.18
2022-12-23T23:55:00.875Z,1.23
